x

Halibut Bank (46146) Wave Buoy

6:00am - Fri 26th Aug 2016 All times are PDT. -7 hours from GMT.

  • Sig Wave height 0.3ft
  • Peak Period 7s
  • Wind
    4mph, 7mph gusts
  • Sea Temp 66°f
  • Air Temp 65°f
  • Sea Pressure 1014.6mb
  • Halibut Bank
  • Halibut Bank

More Historic Weather Station data

Upgrade to MSW Pro to gain access to the past 30 days of data for over 8000 Wavebouys and Weather Stations around the globe.

Join Pro

Comparision Forecast

View Surf forecast
   
Fri 08/26 6:00am 0.3ft 7s 4 7 mph 1014.6mb 66f 65f
5:00am 0.3ft 3s 7 9 mph 1014.4mb 66f 67f
4:00am 0.3ft 7s 4 7 mph 1014.3mb 65f 65f
3:00am 0.3ft 3s 4 7 mph 1014.5mb 65f 66f
2:00am 0.3ft 6s 4
mph
1014.6mb 65f 66f
1:00am 0.3ft 3s 2 4 mph 1014.6mb 65f 68f
12:00am 0.3ft 6s 2 4 mph 1014.4mb 66f 71f
Thu 08/25 11:00pm 0.3ft 4s 2
mph
1014.5mb 65f 67f
10:00pm 0.3ft 3s 2
mph
1014.5mb 66f 69f
9:00pm 0.3ft 3s 2
mph
1014.8mb 66f 72f
8:00pm 0.3ft 2s 4
mph
1014.9mb 67f 68f
7:00pm 0.3ft 4s 2 4 mph 1015mb 67f 69f
6:00pm 0.3ft 2s 4
mph
1015.4mb 68f 69f
5:00pm 0.7ft 4s 2
mph
1016.3mb 67f 69f
4:00pm 0.7ft 3s 2 4 mph 1016.7mb 66f 69f
3:00pm 0.7ft 3s 7 9 mph 1017.5mb 66f 67f
2:00pm 1ft 3s 7 9 mph 1018.3mb 66f 66f
1:00pm 1.3ft 3s 7 9 mph 1019mb 65f 65f
12:00pm 1.3ft 3s 9 13 mph 1019.6mb 65f 65f
11:00am 1ft 3s 13 16 mph 1020mb 65f 64f
10:00am 1ft 3s 13 16 mph 1020.5mb 64f 64f
9:00am 1.3ft 3s 11 13 mph 1021mb 64f 64f
8:00am 1.3ft 3s 11 13 mph 1021.2mb 64f 64f
7:00am 1.3ft 3s 11 13 mph 1021.3mb 64f 63f
6:00am 1.3ft 3s 16 18 mph 1021.1mb 64f 65f
5:00am 1.3ft 3s 13 16 mph 1021mb 64f 65f
4:00am 1ft 3s 16 18 mph 1020.6mb 64f 65f
3:00am 1ft 3s 13 16 mph 1020.7mb 64f 65f
2:00am 0.7ft 2s 13 16 mph 1020.6mb 64f 66f
1:00am 0.3ft 4s 9 11 mph 1020.6mb 64f 67f
12:00am 0.3ft 6s 7 9 mph 1020.4mb 64f 68f
Wed 08/24 11:00pm 0.3ft 6s 4 7 mph 1020.3mb 64f 69f
10:00pm 0.3ft 2s 11 13 mph 1020.2mb 64f 69f
9:00pm 0.7ft 2s 11 13 mph 1020.2mb 64f 71f
8:00pm 0.7ft 2s 11 13 mph 1020.2mb 64f 70f
7:00pm 1ft 6s 11 13 mph 1020.3mb 64f 68f
6:00pm 0.7ft 3s 11
mph
1020.8mb 64f 67f
5:00pm 1ft 3s 11
mph
1021.4mb 64f 67f
4:00pm 1.3ft 3s 11
mph
1022mb 64f 66f
3:00pm 1.3ft 3s 13 16 mph 1022.6mb 64f 65f
2:00pm 1.3ft 3s 11 13 mph 1023.4mb 64f 64f
1:00pm 1.6ft 4s 11 13 mph 1024mb 64f 63f
12:00pm 1.6ft 3s 18 20 mph 1024.3mb 64f 62f
11:00am 1.6ft 4s 16 18 mph 1024.8mb 63f 62f
10:00am 1.6ft 3s 16 18 mph 1024.9mb 62f 62f
9:00am 1.6ft 4s 16 18 mph 1025.1mb 62f 61f
8:00am 1.6ft 4s 16 18 mph 1024.9mb 62f 62f
7:00am 1.6ft 4s 16 18 mph 1024.8mb 62f 62f
6:00am 1.6ft 4s 18 20 mph 1024.4mb 63f 62f
5:00am 1.6ft 4s 18 20 mph 1024.1mb 63f 63f
4:00am 2ft 4s 16 20 mph 1023.6mb 63f 63f
3:00am 1.6ft 4s 16 20 mph 1023.2mb 64f 63f
2:00am 1.3ft 3s 16 18 mph 1022.9mb 64f 63f
1:00am 1.3ft 3s 16 18 mph 1022.5mb 64f 63f
12:00am 1.6ft 3s 18 22 mph 1022.2mb 63f 65f
Tue 08/23 11:00pm 1.3ft 3s 18 20 mph 1021.9mb 64f 65f
10:00pm 1ft 2s 16 18 mph 1021.5mb 64f 67f
9:00pm 1ft 2s 16 18 mph 1021.2mb 64f 67f
8:00pm 1ft 3s 16 18 mph 1020.8mb 64f 68f
7:00pm 1ft 2s 13 16 mph 1021mb 64f 67f
6:00pm 1ft 3s 13
mph
1021.2mb 64f 65f
5:00pm 1ft 3s 11 13 mph 1021.6mb 64f 65f
4:00pm 1ft 3s 13 16 mph 1022mb 63f 63f
3:00pm 1.3ft 3s 11 16 mph 1022.4mb 63f 63f
2:00pm 1.3ft 3s 11 13 mph 1022.7mb 63f 62f
1:00pm 1.6ft 4s 11
mph
1023.1mb 62f 61f
12:00pm 2ft 3s 13 16 mph 1023.3mb 62f 60f
11:00am 2ft 4s 18
mph
1023.2mb 62f 60f
10:00am 1.6ft 3s 13 18 mph 1023.2mb 62f 60f
9:00am 2ft 4s 13 16 mph 1023.1mb 62f 59f
8:00am 1.6ft 3s 16 18 mph 1022.7mb 62f 59f
7:00am 1.3ft 3s 16 20 mph 1022.3mb 62f 60f
6:00am 0.7ft 3s 13 16 mph 1022mb 62f 60f
5:00am 0.3ft 2s 11
mph
1021.7mb 63f 60f
4:00am 0.3ft 2s 7 9 mph 1021.6mb 63f 61f
3:00am 0.3ft 2s 9 11 mph 1021.2mb 63f 61f
2:00am 0.3ft 2s 9 11 mph 1021mb 63f 62f
1:00am 0.3ft 4s 7
mph
1020.8mb 63f 60f
12:00am 0.3ft 4s 7
mph
1020.5mb 64f 62f
Mon 08/22 11:00pm 0.3ft 2s 7 9 mph 1020.2mb 64f 63f
10:00pm 0.3ft 3s 7
mph
1019.8mb 64f 63f
9:00pm 0.7ft 6s 4 7 mph 1019.4mb 64f 63f
8:00pm 0.3ft 2s 4
mph
1018.8mb 63f 63f
7:00pm 0.7ft 3s 4 7 mph 1018.8mb 63f 64f
6:00pm 0.3ft 4s 7 9 mph 1018.8mb 63f 64f
5:00pm 0.7ft 6s 7 9 mph 1019.1mb 64f 63f
4:00pm 0.7ft 3s 9 11 mph 1019.1mb 64f 62f
3:00pm 0.7ft 4s 7 9 mph 1019.1mb 65f 62f